Time;durP1;ratioP1;P1;durP2;ratioP2;P2;SDS_P1;SDS_P2;PMS_P1;PMS_P2;Temp;Humidity;BMP_temperature;BMP_pressure;BME280_temperature;BME280_humidity;BME280_pressure;Samples;Min_cycle;Max_cycle;Signal;HPM_P1;HPM_P2
2023/03/09 00:02:09;;;;;;;34.30;15.15;;;0.90;99.90;;;;;;4933956;28;20038;-76
2023/03/09 00:04:35;;;;;;;29.88;15.65;;;0.90;99.90;;;;;;4934397;28;20067;-76
2023/03/09 00:07:01;;;;;;;27.60;15.63;;;0.80;99.90;;;;;;4907773;28;20066;-77
2023/03/09 00:09:27;;;;;;;34.05;16.70;;;0.90;99.90;;;;;;4917876;28;20403;-74
2023/03/09 00:11:52;;;;;;;28.85;13.85;;;0.90;99.90;;;;;;4916797;28;21001;-75
2023/03/09 00:14:20;;;;;;;28.45;15.75;;;0.90;99.90;;;;;;4907354;28;20030;-75
2023/03/09 00:16:46;;;;;;;29.00;14.82;;;0.90;99.90;;;;;;4927879;28;20050;-75
2023/03/09 00:19:12;;;;;;;29.83;14.73;;;0.90;99.90;;;;;;4916511;28;20032;-75
2023/03/09 00:21:39;;;;;;;28.65;15.40;;;0.90;99.90;;;;;;4944180;28;20121;-75
2023/03/09 00:24:08;;;;;;;28.33;13.02;;;0.90;99.90;;;;;;4949556;28;20378;-76
2023/03/09 00:26:34;;;;;;;23.83;13.82;;;0.90;99.90;;;;;;4950392;28;20482;-76
2023/03/09 00:29:00;;;;;;;29.80;14.93;;;0.90;99.90;;;;;;4912324;29;20095;-76
2023/03/09 00:31:26;;;;;;;31.48;15.00;;;0.90;99.90;;;;;;4916523;28;20395;-76
2023/03/09 00:33:51;;;;;;;27.60;14.73;;;0.90;99.90;;;;;;4913323;28;20043;-76
2023/03/09 00:36:17;;;;;;;27.10;14.35;;;0.90;99.90;;;;;;4950383;28;20428;-76
2023/03/09 00:38:43;;;;;;;36.50;16.33;;;0.90;99.90;;;;;;4891194;29;20536;-76
2023/03/09 00:41:09;;;;;;;32.17;14.52;;;0.90;99.90;;;;;;4926731;28;20039;-76
2023/03/09 00:43:34;;;;;;;32.75;16.30;;;0.90;99.90;;;;;;4920804;28;20055;-77
2023/03/09 00:46:00;;;;;;;27.65;14.07;;;0.90;99.90;;;;;;4917121;28;20115;-76
2023/03/09 00:48:25;;;;;;;29.48;15.07;;;0.90;99.90;;;;;;4948429;28;20114;-76
2023/03/09 00:50:51;;;;;;;26.67;13.93;;;0.90;99.90;;;;;;4909546;28;20051;-76
2023/03/09 00:53:17;;;;;;;25.35;12.93;;;0.90;99.90;;;;;;4917699;28;20523;-76
2023/03/09 00:55:42;;;;;;;29.02;14.80;;;1.00;99.90;;;;;;4933565;28;20532;-76
2023/03/09 00:58:09;;;;;;;29.17;13.85;;;0.90;99.90;;;;;;4948703;28;20057;-76
2023/03/09 01:00:35;;;;;;;27.98;13.95;;;0.90;99.90;;;;;;4931821;28;20063;-76
2023/03/09 01:03:00;;;;;;;34.42;18.38;;;1.00;99.90;;;;;;4948105;28;20482;-77
2023/03/09 01:05:26;;;;;;;36.90;18.60;;;0.90;99.90;;;;;;4924377;28;20039;-77
2023/03/09 01:07:52;;;;;;;34.13;16.20;;;0.90;99.90;;;;;;4915715;28;20504;-75
2023/03/09 01:10:17;;;;;;;33.80;17.10;;;0.90;99.90;;;;;;4924713;28;20505;-77
2023/03/09 01:12:43;;;;;;;37.88;17.77;;;0.90;99.90;;;;;;4931038;28;20054;-77
2023/03/09 01:15:10;;;;;;;31.13;16.30;;;0.90;99.90;;;;;;4933991;28;20400;-77
2023/03/09 01:17:35;;;;;;;32.42;17.60;;;0.90;99.90;;;;;;4918953;28;20045;-77
2023/03/09 01:20:01;;;;;;;35.85;17.08;;;0.90;99.90;;;;;;4931588;28;20027;-76
2023/03/09 01:22:26;;;;;;;34.85;17.15;;;0.90;99.90;;;;;;4939843;28;20033;-77
2023/03/09 01:24:52;;;;;;;31.98;17.02;;;0.90;99.90;;;;;;4932784;28;20050;-76
2023/03/09 01:27:18;;;;;;;35.80;18.52;;;0.90;99.90;;;;;;4938314;28;20713;-75
2023/03/09 01:29:43;;;;;;;38.30;18.65;;;0.90;99.90;;;;;;4905560;28;20042;-75
2023/03/09 01:32:09;;;;;;;36.17;18.42;;;0.90;99.90;;;;;;4948502;28;20439;-75
2023/03/09 01:34:34;;;;;;;36.15;18.10;;;0.90;99.90;;;;;;4949945;28;20544;-75
2023/03/09 01:37:00;;;;;;;38.75;19.25;;;0.90;99.90;;;;;;4946833;28;20147;-75
2023/03/09 01:39:25;;;;;;;35.65;17.55;;;0.90;99.90;;;;;;4920729;28;20049;-76
2023/03/09 01:41:51;;;;;;;38.75;20.48;;;0.90;99.90;;;;;;4918542;29;20488;-76
2023/03/09 01:44:17;;;;;;;39.13;19.45;;;0.90;99.90;;;;;;4943131;28;20400;-76
2023/03/09 01:46:54;;;;;;;43.75;19.98;;;0.90;99.90;;;;;;4908473;28;20116;-75
2023/03/09 01:49:42;;;;;;;42.15;20.52;;;0.90;99.90;;;;;;4928828;28;20489;-76
2023/03/09 01:52:10;;;;;;;43.92;19.65;;;0.90;99.90;;;;;;4932682;28;20054;-75
2023/03/09 01:54:45;;;;;;;38.80;16.70;;;1.00;99.90;;;;;;4942316;28;20027;-76
2023/03/09 01:57:21;;;;;;;42.20;19.63;;;1.00;99.90;;;;;;4942430;28;20042;-75
2023/03/09 01:59:47;;;;;;;40.05;18.80;;;1.00;99.90;;;;;;4943983;28;20035;-77
2023/03/09 02:02:13;;;;;;;48.38;21.60;;;0.90;99.90;;;;;;4947182;28;20023;-77
2023/03/09 02:04:44;;;;;;;51.72;22.17;;;1.00;99.90;;;;;;4919991;28;20133;-77
2023/03/09 02:07:10;;;;;;;42.90;17.95;;;0.90;99.90;;;;;;4933697;28;20034;-76
2023/03/09 02:10:04;;;;;;;54.28;22.98;;;1.00;99.90;;;;;;4911225;28;20032;-76
2023/03/09 02:12:30;;;;;;;70.40;26.50;;;0.90;99.90;;;;;;4918776;28;20035;-76
2023/03/09 02:14:55;;;;;;;57.92;22.98;;;1.00;99.90;;;;;;4914457;28;20031;-76
2023/03/09 02:17:21;;;;;;;69.20;25.77;;;0.90;99.90;;;;;;4912132;28;20045;-76
2023/03/09 02:19:52;;;;;;;68.40;25.63;;;0.90;99.90;;;;;;4916114;28;20031;-76
2023/03/09 02:22:18;;;;;;;82.00;30.50;;;0.90;99.90;;;;;;4945601;28;20408;-76
2023/03/09 02:24:49;;;;;;;75.85;27.00;;;0.90;99.90;;;;;;4918886;28;20035;-76
2023/03/09 02:27:22;;;;;;;67.88;26.67;;;0.90;99.90;;;;;;4932294;28;20802;-76
2023/03/09 02:29:47;;;;;;;61.17;26.02;;;0.90;99.90;;;;;;4927790;28;20035;-76
2023/03/09 02:32:13;;;;;;;63.55;25.67;;;0.90;99.90;;;;;;4923673;28;20053;-76
2023/03/09 02:34:38;;;;;;;66.53;27.48;;;0.90;99.90;;;;;;4950346;28;20108;-76
2023/03/09 02:37:04;;;;;;;70.55;26.90;;;0.90;99.90;;;;;;4927552;28;20032;-76
2023/03/09 02:39:42;;;;;;;64.78;28.75;;;1.00;99.90;;;;;;4926471;28;20032;-76
2023/03/09 02:42:07;;;;;;;36.97;16.10;;;1.00;99.90;;;;;;4929298;28;20045;-76
2023/03/09 02:44:33;;;;;;;49.58;19.20;;;1.00;99.90;;;;;;4952069;28;20035;-76
2023/03/09 02:47:06;;;;;;;51.38;22.17;;;1.00;99.90;;;;;;4931456;28;20443;-76
2023/03/09 02:49:31;;;;;;;62.28;24.63;;;1.10;99.90;;;;;;4926570;28;20039;-76
2023/03/09 02:51:57;;;;;;;62.00;24.77;;;1.10;99.90;;;;;;4912568;28;20118;-76
2023/03/09 02:54:22;;;;;;;65.68;25.98;;;1.10;99.90;;;;;;4934631;28;20065;-76
2023/03/09 02:56:48;;;;;;;63.25;25.23;;;1.00;99.90;;;;;;4911128;28;20030;-76
2023/03/09 02:59:13;;;;;;;61.15;23.45;;;1.00;99.90;;;;;;4914608;28;20027;-76
2023/03/09 03:01:39;;;;;;;47.20;19.08;;;1.00;99.90;;;;;;4914310;28;20105;-76
2023/03/09 03:04:05;;;;;;;57.08;22.75;;;1.00;99.90;;;;;;4916104;28;20800;-76
2023/03/09 03:06:30;;;;;;;39.00;17.55;;;1.00;99.90;;;;;;4901543;28;20550;-76
2023/03/09 03:08:56;;;;;;;52.92;22.83;;;1.10;99.90;;;;;;4949509;28;20042;-76
2023/03/09 03:11:21;;;;;;;55.13;23.15;;;1.10;99.90;;;;;;4946393;28;20061;-76
2023/03/09 03:13:47;;;;;;;51.85;21.75;;;1.00;99.90;;;;;;4925522;28;20086;-76
2023/03/09 03:16:12;;;;;;;58.80;23.95;;;1.00;99.90;;;;;;4893056;28;20035;-76
2023/03/09 03:18:38;;;;;;;47.47;21.95;;;1.00;99.90;;;;;;4915982;28;20037;-76
2023/03/09 03:21:04;;;;;;;57.67;22.38;;;1.00;99.90;;;;;;4946038;28;20447;-78
2023/03/09 03:23:29;;;;;;;40.03;17.88;;;1.10;99.90;;;;;;4915976;28;20503;-76
2023/03/09 03:25:55;;;;;;;53.08;22.00;;;1.00;99.90;;;;;;4912008;28;20750;-76
2023/03/09 03:28:21;;;;;;;46.42;20.80;;;1.00;99.90;;;;;;4893885;28;20020;-75
2023/03/09 03:30:50;;;;;;;55.10;21.83;;;1.00;99.90;;;;;;4917971;28;20086;-76
2023/03/09 03:33:16;;;;;;;51.80;20.80;;;1.10;99.90;;;;;;4917404;28;20023;-77
2023/03/09 03:35:42;;;;;;;46.55;20.48;;;1.00;99.90;;;;;;4933163;28;20035;-77
2023/03/09 03:38:08;;;;;;;52.25;22.75;;;1.00;99.90;;;;;;4910634;28;20071;-78
2023/03/09 03:40:34;;;;;;;55.38;22.33;;;1.00;99.90;;;;;;4934696;28;20456;-78
2023/03/09 03:42:59;;;;;;;51.10;21.65;;;1.00;99.90;;;;;;4929885;28;20027;-77
2023/03/09 03:45:25;;;;;;;51.67;21.23;;;1.00;99.90;;;;;;4913542;28;20027;-76
2023/03/09 03:47:51;;;;;;;53.35;22.73;;;1.00;99.90;;;;;;4918808;28;20046;-76
2023/03/09 03:50:16;;;;;;;52.13;22.88;;;1.00;99.90;;;;;;4930091;28;20062;-77
2023/03/09 03:52:42;;;;;;;47.70;20.17;;;1.00;99.90;;;;;;4937178;28;20045;-77
2023/03/09 03:55:08;;;;;;;55.30;21.65;;;1.00;99.90;;;;;;4924073;28;20038;-76
2023/03/09 03:57:33;;;;;;;53.58;22.85;;;1.00;99.90;;;;;;4927934;29;20039;-77
2023/03/09 03:59:59;;;;;;;49.70;21.67;;;1.00;99.90;;;;;;4934046;28;20101;-77
2023/03/09 04:02:24;;;;;;;61.05;24.02;;;1.00;99.90;;;;;;4947120;28;20673;-77
2023/03/09 04:04:51;;;;;;;58.50;24.02;;;1.00;99.90;;;;;;4918669;28;20031;-77
2023/03/09 04:07:17;;;;;;;54.05;23.15;;;1.00;99.90;;;;;;4944229;28;20503;-76
2023/03/09 04:09:42;;;;;;;48.22;21.02;;;1.00;99.90;;;;;;4930585;28;20035;-77
2023/03/09 04:12:08;;;;;;;56.22;23.15;;;1.00;99.90;;;;;;4928737;28;20035;-77
2023/03/09 04:14:34;;;;;;;38.55;16.05;;;1.00;99.90;;;;;;4952668;28;20098;-77
2023/03/09 04:16:59;;;;;;;48.17;20.58;;;1.10;99.90;;;;;;4931396;28;20031;-75
2023/03/09 04:19:25;;;;;;;54.10;20.75;;;1.10;99.90;;;;;;4938560;28;20035;-75
2023/03/09 04:21:50;;;;;;;53.40;22.30;;;1.10;99.90;;;;;;4904429;28;20039;-77
2023/03/09 04:24:16;;;;;;;60.88;24.58;;;1.00;99.90;;;;;;4886789;29;20044;-76
2023/03/09 04:26:41;;;;;;;54.08;23.80;;;1.10;99.90;;;;;;4913900;28;20106;-77
2023/03/09 04:29:10;;;;;;;64.20;24.98;;;1.00;99.90;;;;;;4915413;28;20028;-78
2023/03/09 04:31:36;;;;;;;70.97;26.38;;;1.10;99.90;;;;;;4955396;28;20042;-77
2023/03/09 04:34:01;;;;;;;69.22;26.02;;;1.00;99.90;;;;;;4931012;28;20394;-77
2023/03/09 04:36:27;;;;;;;59.30;25.17;;;1.00;99.90;;;;;;4943659;28;20506;-77
2023/03/09 04:38:52;;;;;;;73.63;29.63;;;1.00;99.90;;;;;;4917080;28;20035;-77
2023/03/09 04:41:18;;;;;;;69.55;27.20;;;1.00;99.90;;;;;;4951647;28;20050;-77
2023/03/09 04:43:43;;;;;;;65.53;24.95;;;1.00;99.90;;;;;;4920685;28;20038;-77
2023/03/09 04:46:09;;;;;;;73.43;27.85;;;1.10;99.90;;;;;;4941776;28;20041;-77
2023/03/09 04:48:34;;;;;;;70.72;23.88;;;1.10;99.90;;;;;;4930738;28;20070;-77
2023/03/09 04:51:00;;;;;;;73.00;25.98;;;1.10;99.90;;;;;;4929413;28;21088;-77
2023/03/09 04:53:25;;;;;;;67.55;24.45;;;1.10;99.90;;;;;;4915973;28;20019;-77
2023/03/09 04:55:51;;;;;;;65.57;24.17;;;1.20;99.90;;;;;;4914636;28;20031;-77
2023/03/09 04:58:17;;;;;;;50.15;20.73;;;1.10;99.90;;;;;;4928918;28;20045;-77
2023/03/09 05:00:42;;;;;;;66.95;25.83;;;1.10;99.90;;;;;;4935332;28;20045;-77
2023/03/09 05:03:08;;;;;;;58.13;22.52;;;1.10;99.90;;;;;;4913065;28;20130;-78
2023/03/09 05:05:34;;;;;;;70.30;25.33;;;1.10;99.90;;;;;;4924988;28;20090;-76
2023/03/09 05:07:59;;;;;;;65.03;26.45;;;1.10;99.90;;;;;;4932485;28;20115;-76
2023/03/09 05:10:25;;;;;;;71.70;28.20;;;1.10;99.90;;;;;;4918340;28;20034;-75
2023/03/09 05:12:50;;;;;;;73.18;27.45;;;1.10;99.90;;;;;;4928400;28;20476;-76
2023/03/09 05:15:16;;;;;;;79.53;26.63;;;1.10;99.90;;;;;;4919276;28;20038;-75
2023/03/09 05:17:42;;;;;;;88.50;33.03;;;1.10;99.90;;;;;;4948441;28;20051;-76
2023/03/09 05:20:10;;;;;;;66.68;23.80;;;1.10;99.90;;;;;;4934832;28;20031;-76
2023/03/09 05:22:37;;;;;;;68.20;22.42;;;1.10;99.90;;;;;;4923892;28;20530;-76
2023/03/09 05:25:03;;;;;;;73.35;26.45;;;1.20;99.90;;;;;;4946029;28;20657;-76
2023/03/09 05:27:30;;;;;;;74.03;27.48;;;1.20;99.90;;;;;;4932944;28;20123;-78
2023/03/09 05:29:56;;;;;;;77.60;27.08;;;1.20;99.90;;;;;;4918968;28;20559;-76
2023/03/09 05:32:22;;;;;;;69.75;26.40;;;1.10;99.90;;;;;;4950046;28;20137;-76
2023/03/09 05:34:47;;;;;;;92.63;30.25;;;1.10;99.90;;;;;;4916746;28;20035;-76
2023/03/09 05:37:13;;;;;;;90.65;30.63;;;1.10;99.90;;;;;;4912681;28;20043;-77
2023/03/09 05:39:38;;;;;;;89.78;30.45;;;1.30;99.90;;;;;;4924257;28;20037;-76
2023/03/09 05:42:05;;;;;;;87.90;30.23;;;1.10;99.90;;;;;;4945827;28;20055;-78
2023/03/09 05:44:31;;;;;;;79.85;28.25;;;1.10;99.90;;;;;;4935663;28;20037;-75
2023/03/09 05:46:57;;;;;;;92.68;28.13;;;1.10;99.90;;;;;;4916211;28;20035;-76
2023/03/09 05:49:23;;;;;;;94.07;29.52;;;1.10;99.90;;;;;;4915304;28;20039;-76
2023/03/09 05:51:49;;;;;;;85.25;30.50;;;1.10;99.90;;;;;;4908089;28;20027;-76
2023/03/09 05:54:16;;;;;;;90.85;30.17;;;1.10;99.90;;;;;;4933552;28;20020;-76
2023/03/09 05:56:42;;;;;;;83.80;29.02;;;1.20;99.90;;;;;;4930962;28;20065;-76
2023/03/09 05:59:07;;;;;;;108.45;35.42;;;1.20;99.90;;;;;;4933494;28;20035;-76
2023/03/09 06:01:33;;;;;;;93.68;32.95;;;1.10;99.90;;;;;;4922235;29;20123;-76
2023/03/09 06:03:59;;;;;;;104.45;35.50;;;1.10;99.90;;;;;;4914352;28;20390;-76
2023/03/09 06:06:24;;;;;;;109.15;33.42;;;1.10;99.90;;;;;;4928353;28;20493;-76
2023/03/09 06:08:50;;;;;;;108.13;33.70;;;1.10;99.90;;;;;;4948278;28;20040;-76
2023/03/09 06:11:16;;;;;;;109.80;31.83;;;1.10;99.90;;;;;;4909876;28;20032;-76
2023/03/09 06:13:42;;;;;;;109.53;34.58;;;1.10;99.90;;;;;;4933230;28;20495;-76
2023/03/09 06:16:10;;;;;;;111.07;31.52;;;1.10;99.90;;;;;;4930259;28;20122;-76
2023/03/09 06:18:37;;;;;;;101.22;30.70;;;1.10;99.90;;;;;;4934335;28;20051;-76
2023/03/09 06:21:03;;;;;;;99.60;30.67;;;1.10;99.90;;;;;;4916315;29;20508;-76
2023/03/09 06:23:29;;;;;;;142.45;32.05;;;1.10;99.90;;;;;;4917267;28;20035;-76
2023/03/09 06:25:55;;;;;;;85.65;24.17;;;1.10;99.90;;;;;;4896064;29;20420;-76
2023/03/09 06:28:21;;;;;;;72.93;24.35;;;1.20;99.90;;;;;;4912247;28;20036;-76
2023/03/09 06:30:46;;;;;;;56.40;21.48;;;1.20;99.90;;;;;;4908422;29;20035;-75
2023/03/09 06:33:12;;;;;;;85.15;27.73;;;1.20;99.90;;;;;;4889527;28;20446;-76
2023/03/09 06:35:39;;;;;;;109.55;31.85;;;1.30;99.90;;;;;;4936536;28;20450;-76
2023/03/09 06:38:04;;;;;;;82.47;29.45;;;1.30;99.90;;;;;;4913816;28;20376;-76
2023/03/09 06:40:30;;;;;;;77.03;26.80;;;1.30;99.90;;;;;;4890090;28;20150;-76
2023/03/09 06:42:56;;;;;;;91.22;28.65;;;1.40;99.90;;;;;;4911346;29;20036;-76
2023/03/09 06:45:21;;;;;;;95.90;29.33;;;1.30;99.90;;;;;;4943017;28;20035;-76
2023/03/09 06:47:47;;;;;;;97.03;31.40;;;1.30;99.90;;;;;;4901665;29;20074;-76
2023/03/09 06:50:13;;;;;;;70.40;25.00;;;1.40;99.90;;;;;;4933554;28;20466;-76
2023/03/09 06:52:38;;;;;;;100.60;32.03;;;1.40;99.90;;;;;;4911532;29;20395;-76
2023/03/09 06:55:05;;;;;;;82.15;27.15;;;1.40;99.90;;;;;;4909513;28;20381;-76
2023/03/09 06:57:30;;;;;;;86.80;28.33;;;1.50;99.90;;;;;;4930804;28;20040;-76
2023/03/09 06:59:56;;;;;;;56.70;20.35;;;1.40;99.90;;;;;;4908345;29;20039;-76
2023/03/09 07:02:21;;;;;;;74.22;24.55;;;1.50;99.90;;;;;;4928368;28;20035;-77
2023/03/09 07:04:47;;;;;;;54.38;20.58;;;1.70;99.90;;;;;;4927026;28;20092;-76
2023/03/09 07:07:12;;;;;;;59.28;22.33;;;1.80;99.90;;;;;;4891626;28;20115;-76
2023/03/09 07:09:38;;;;;;;79.50;27.33;;;1.80;99.90;;;;;;4915785;28;20387;-76
2023/03/09 07:12:04;;;;;;;84.75;29.42;;;1.80;99.90;;;;;;4926675;29;20036;-75
2023/03/09 07:14:30;;;;;;;69.35;24.40;;;1.80;99.90;;;;;;4928808;28;20031;-76
2023/03/09 07:16:55;;;;;;;83.03;26.95;;;1.80;99.90;;;;;;4911878;29;20083;-76
2023/03/09 07:19:21;;;;;;;73.60;25.05;;;1.90;99.90;;;;;;4907490;28;20035;-75
2023/03/09 07:21:47;;;;;;;84.82;26.67;;;1.90;99.90;;;;;;4915810;28;20035;-77
2023/03/09 07:24:13;;;;;;;73.53;23.20;;;2.00;99.90;;;;;;4904873;29;20028;-76
2023/03/09 07:26:38;;;;;;;88.00;25.48;;;2.00;99.90;;;;;;4948434;28;20039;-74
2023/03/09 07:29:04;;;;;;;91.82;27.75;;;2.00;99.90;;;;;;4916017;29;20086;-76
2023/03/09 07:31:29;;;;;;;97.40;30.27;;;2.00;99.90;;;;;;4933917;28;20516;-76
2023/03/09 07:33:56;;;;;;;76.60;26.13;;;2.10;99.90;;;;;;4931707;29;20063;-75
2023/03/09 07:36:23;;;;;;;102.80;27.05;;;2.10;99.90;;;;;;4935971;28;20594;-76
2023/03/09 07:38:49;;;;;;;71.78;23.25;;;2.10;99.90;;;;;;4917792;28;20031;-75
2023/03/09 07:41:15;;;;;;;68.97;21.60;;;2.10;99.90;;;;;;4940130;28;20042;-75
2023/03/09 07:43:43;;;;;;;77.72;22.65;;;2.20;99.90;;;;;;4926278;28;20027;-77
2023/03/09 07:46:13;;;;;;;70.80;22.77;;;2.30;99.90;;;;;;4942152;28;20448;-78
2023/03/09 07:48:39;;;;;;;83.63;24.23;;;2.30;99.90;;;;;;4945700;28;20034;-78
2023/03/09 07:51:05;;;;;;;94.78;26.80;;;2.40;99.90;;;;;;4931759;28;20027;-77
2023/03/09 07:53:32;;;;;;;75.45;23.02;;;2.40;99.90;;;;;;4918823;28;20139;-77
2023/03/09 07:55:58;;;;;;;107.47;27.70;;;2.40;99.90;;;;;;4923052;28;20032;-77
2023/03/09 07:58:24;;;;;;;112.22;28.88;;;2.50;99.90;;;;;;4920075;28;20048;-77
2023/03/09 08:00:49;;;;;;;107.78;30.17;;;2.50;99.90;;;;;;4915215;28;20392;-77
2023/03/09 08:03:16;;;;;;;117.15;32.33;;;2.50;99.90;;;;;;4911357;28;20031;-77
2023/03/09 08:05:42;;;;;;;103.25;31.20;;;2.50;99.90;;;;;;4920824;28;20560;-76
2023/03/09 08:08:07;;;;;;;106.07;30.40;;;2.50;99.90;;;;;;4915599;28;20035;-77
2023/03/09 08:10:33;;;;;;;100.63;29.85;;;2.50;99.90;;;;;;4934390;28;20179;-76
2023/03/09 08:12:59;;;;;;;91.43;29.42;;;2.50;99.90;;;;;;4925148;28;20044;-76
2023/03/09 08:15:25;;;;;;;98.18;29.65;;;2.50;99.90;;;;;;4926407;28;20034;-76
2023/03/09 08:17:50;;;;;;;114.78;32.90;;;2.60;99.90;;;;;;4890806;29;20051;-76
2023/03/09 08:20:16;;;;;;;119.30;33.20;;;2.70;99.90;;;;;;4914868;28;20431;-76
2023/03/09 08:22:42;;;;;;;111.93;32.50;;;2.70;99.90;;;;;;4914812;28;20043;-76
2023/03/09 08:25:08;;;;;;;131.60;33.45;;;2.80;99.90;;;;;;4910417;28;20028;-77
2023/03/09 08:27:41;;;;;;;119.63;31.52;;;2.80;99.90;;;;;;4949441;28;20561;-75
2023/03/09 08:30:07;;;;;;;139.88;33.58;;;2.80;99.90;;;;;;4924446;28;20135;-76
2023/03/09 08:32:33;;;;;;;149.57;36.00;;;2.90;99.90;;;;;;4915673;28;20043;-77
2023/03/09 08:34:58;;;;;;;145.30;37.00;;;2.90;99.90;;;;;;4940953;28;20488;-77
2023/03/09 08:37:24;;;;;;;155.00;37.80;;;3.00;99.90;;;;;;4929205;28;20163;-77
2023/03/09 08:39:56;;;;;;;151.90;34.13;;;3.00;99.90;;;;;;4913875;29;20110;-76
2023/03/09 08:42:21;;;;;;;134.35;33.95;;;3.10;99.90;;;;;;4915332;28;20066;-77
2023/03/09 08:44:47;;;;;;;153.98;36.17;;;3.10;99.90;;;;;;4912230;29;20044;-76
2023/03/09 08:47:13;;;;;;;182.40;38.75;;;3.20;99.90;;;;;;4929888;28;20139;-76
2023/03/09 08:49:40;;;;;;;145.15;35.67;;;3.20;99.90;;;;;;4947470;28;20040;-77
2023/03/09 08:52:06;;;;;;;163.75;38.90;;;3.30;99.90;;;;;;4934956;28;20490;-76
2023/03/09 08:54:32;;;;;;;145.10;35.88;;;3.30;99.90;;;;;;4907309;28;20051;-76
2023/03/09 08:56:57;;;;;;;170.75;39.20;;;3.40;99.90;;;;;;4931304;28;20039;-76
2023/03/09 08:59:23;;;;;;;162.32;40.58;;;3.50;99.90;;;;;;4952291;28;20502;-76
2023/03/09 09:01:49;;;;;;;155.27;42.00;;;3.50;99.90;;;;;;4919202;28;20514;-77
2023/03/09 09:04:14;;;;;;;164.77;40.40;;;3.60;99.90;;;;;;4955054;28;20050;-77
2023/03/09 09:06:40;;;;;;;148.45;36.35;;;3.60;99.90;;;;;;4922879;28;20038;-76
2023/03/09 09:09:05;;;;;;;171.40;41.50;;;3.70;99.90;;;;;;4928531;28;20050;-77
2023/03/09 09:11:32;;;;;;;154.02;34.35;;;3.80;99.90;;;;;;4921208;28;20073;-76
2023/03/09 09:13:58;;;;;;;149.27;37.55;;;3.80;99.90;;;;;;4926951;28;20478;-77
2023/03/09 09:16:27;;;;;;;201.73;44.47;;;3.90;99.90;;;;;;4930429;28;20039;-76
2023/03/09 09:18:53;;;;;;;197.07;43.47;;;3.90;99.90;;;;;;4923705;28;20091;-76
2023/03/09 09:21:19;;;;;;;171.48;42.45;;;4.00;99.90;;;;;;4927978;28;20035;-76
2023/03/09 09:23:44;;;;;;;225.93;45.80;;;4.00;99.90;;;;;;4920247;29;20032;-77
2023/03/09 09:26:13;;;;;;;176.10;45.33;;;4.10;99.90;;;;;;4919296;28;20058;-76
2023/03/09 09:28:39;;;;;;;156.32;44.22;;;4.20;99.90;;;;;;4921702;28;20697;-76
2023/03/09 09:31:05;;;;;;;158.98;39.35;;;4.20;99.90;;;;;;4910795;29;20027;-77
2023/03/09 09:33:33;;;;;;;104.65;30.05;;;4.10;99.90;;;;;;4930632;28;20083;-76
2023/03/09 09:36:13;;;;;;;164.18;39.33;;;4.20;99.90;;;;;;4915844;29;20090;-76
2023/03/09 09:38:38;;;;;;;166.63;39.80;;;4.20;99.90;;;;;;4928188;28;20042;-76
2023/03/09 09:41:25;;;;;;;159.25;37.95;;;4.20;99.90;;;;;;4918239;29;20043;-76
2023/03/09 09:43:54;;;;;;;109.18;28.95;;;4.30;99.90;;;;;;4928944;28;20119;-76
2023/03/09 09:46:20;;;;;;;201.68;42.08;;;4.30;99.90;;;;;;4928271;28;20910;-76
2023/03/09 09:48:46;;;;;;;122.03;31.75;;;4.40;99.90;;;;;;4945747;28;20455;-76
2023/03/09 09:51:24;;;;;;;98.13;28.63;;;4.50;99.90;;;;;;4952239;28;20023;-76
2023/03/09 09:53:53;;;;;;;75.95;23.10;;;4.50;99.90;;;;;;4928066;28;20035;-77
2023/03/09 09:56:21;;;;;;;123.50;35.70;;;4.50;99.90;;;;;;4943762;28;20035;-76
2023/03/09 09:58:50;;;;;;;200.63;44.90;;;4.70;99.90;;;;;;4927979;28;20479;-76
2023/03/09 10:01:43;;;;;;;247.98;52.42;;;4.80;99.90;;;;;;4929643;28;20031;-77
2023/03/09 10:04:14;;;;;;;688.50;83.32;;;4.90;99.90;;;;;;4930158;28;20138;-77
2023/03/09 10:06:40;;;;;;;452.98;62.13;;;5.00;99.90;;;;;;4929371;28;20034;-76
2023/03/09 10:09:10;;;;;;;354.25;59.05;;;5.10;99.90;;;;;;4919585;28;20628;-77
2023/03/09 10:11:43;;;;;;;780.92;93.32;;;5.30;99.90;;;;;;4919357;28;20032;-77
2023/03/09 10:14:12;;;;;;;624.50;86.63;;;5.50;99.90;;;;;;4913332;28;20035;-77
2023/03/09 10:17:00;;;;;;;181.23;37.88;;;5.60;99.90;;;;;;4942409;28;20066;-77
2023/03/09 10:19:38;;;;;;;232.80;47.70;;;5.60;99.90;;;;;;4945082;28;20022;-77
2023/03/09 10:22:13;;;;;;;209.80;43.28;;;5.70;99.90;;;;;;4931779;28;20185;-77
2023/03/09 10:24:44;;;;;;;204.60;47.25;;;5.70;99.90;;;;;;4954845;28;20022;-77
2023/03/09 10:27:31;;;;;;;176.55;38.78;;;5.70;99.90;;;;;;4935977;28;20031;-78
2023/03/09 10:30:21;;;;;;;218.38;45.78;;;5.70;99.90;;;;;;4945487;28;20484;-77
2023/03/09 10:32:52;;;;;;;151.35;35.15;;;5.70;99.90;;;;;;4950377;28;20033;-77
2023/03/09 10:35:27;;;;;;;251.40;51.38;;;5.70;99.90;;;;;;4934185;28;20077;-78
2023/03/09 10:37:53;;;;;;;190.32;44.22;;;5.70;99.90;;;;;;4927895;28;20106;-78
2023/03/09 10:40:26;;;;;;;95.30;28.08;;;5.70;99.90;;;;;;4929686;28;20043;-78
2023/03/09 10:42:52;;;;;;;72.65;24.77;;;5.60;99.90;;;;;;4934859;28;20031;-78
2023/03/09 10:45:28;;;;;;;72.22;26.95;;;5.60;99.90;;;;;;4920379;28;20404;-77
2023/03/09 10:48:00;;;;;;;63.38;21.23;;;5.60;99.90;;;;;;4948854;28;20047;-77
2023/03/09 10:50:31;;;;;;;67.80;22.25;;;5.70;99.90;;;;;;4936924;28;20050;-77
2023/03/09 10:52:56;;;;;;;58.33;21.38;;;5.80;99.90;;;;;;4925727;28;20032;-77
2023/03/09 10:55:36;;;;;;;51.65;20.40;;;6.00;99.90;;;;;;4919999;28;20054;-78
2023/03/09 10:58:23;;;;;;;56.05;21.45;;;6.20;99.90;;;;;;4948035;28;20034;-77
2023/03/09 11:00:50;;;;;;;52.55;22.20;;;6.20;99.90;;;;;;4918258;29;20059;-78
2023/03/09 11:03:23;;;;;;;55.90;21.92;;;6.30;99.90;;;;;;4927656;28;20484;-78
2023/03/09 11:05:49;;;;;;;70.60;28.17;;;5.90;99.90;;;;;;4908940;28;20086;-77
2023/03/09 11:08:25;;;;;;;70.68;29.00;;;6.40;99.90;;;;;;4927116;28;20349;-78
2023/03/09 11:11:01;;;;;;;51.20;20.95;;;6.40;99.90;;;;;;4914551;28;20798;-77
2023/03/09 11:13:27;;;;;;;61.05;25.98;;;6.40;99.90;;;;;;4931843;28;20026;-77
2023/03/09 11:16:23;;;;;;;61.92;25.33;;;6.40;99.90;;;;;;4896530;29;20224;-77
2023/03/09 11:18:55;;;;;;;56.78;22.90;;;6.50;99.90;;;;;;4918477;28;20121;-78
2023/03/09 11:21:23;;;;;;;63.80;26.85;;;6.40;99.90;;;;;;4934393;28;20516;-77
2023/03/09 11:23:51;;;;;;;81.40;31.13;;;6.50;99.90;;;;;;4914710;29;20117;-78
2023/03/09 11:26:27;;;;;;;99.78;33.85;;;6.70;99.90;;;;;;4908190;29;20087;-78
2023/03/09 11:28:52;;;;;;;;;;;6.80;99.90;;;;;;4934163;28;20042;-77
2023/03/09 11:31:20;;;;;;;100.50;34.97;;;6.90;99.90;;;;;;4929003;28;19911;-78
2023/03/09 11:33:46;;;;;;;103.90;35.33;;;7.00;99.90;;;;;;4906894;29;20060;-78
2023/03/09 11:36:15;;;;;;;87.15;29.75;;;7.00;99.90;;;;;;4908990;28;20032;-78
2023/03/09 11:38:43;;;;;;;64.30;26.85;;;7.00;99.90;;;;;;4912575;28;20451;-77
2023/03/09 11:41:21;;;;;;;98.40;36.70;;;7.00;99.90;;;;;;4928746;28;20098;-78
2023/03/09 11:43:50;;;;;;;94.18;33.65;;;7.10;99.90;;;;;;4918315;28;20167;-78
2023/03/09 11:46:15;;;;;;;92.85;32.75;;;7.20;99.90;;;;;;4903460;28;20709;-79
2023/03/09 11:48:49;;;;;;;106.85;35.88;;;7.20;99.90;;;;;;4934395;28;20032;-78
2023/03/09 11:51:18;;;;;;;93.90;34.85;;;7.30;99.90;;;;;;4921051;28;20062;-78
2023/03/09 11:53:46;;;;;;;56.50;22.88;;;7.40;99.90;;;;;;4951342;28;20146;-78
2023/03/09 11:56:16;;;;;;;77.90;28.48;;;7.20;99.90;;;;;;4948648;28;20043;-78
2023/03/09 11:58:43;;;;;;;85.75;32.03;;;7.40;99.90;;;;;;4935990;28;20088;-79
2023/03/09 12:01:26;;;;;;;55.90;22.98;;;7.70;99.90;;;;;;4917442;28;20574;-79
2023/03/09 12:03:59;;;;;;;70.00;27.67;;;7.70;99.90;;;;;;4933364;28;20094;-78
2023/03/09 12:06:41;;;;;;;75.53;31.88;;;7.70;99.90;;;;;;4928196;28;20047;-77
2023/03/09 12:09:25;;;;;;;75.53;30.13;;;7.70;99.90;;;;;;4908988;28;20448;-78
2023/03/09 12:12:16;;;;;;;62.45;26.38;;;7.80;99.90;;;;;;4906530;28;20035;-78
2023/03/09 12:14:43;;;;;;;61.45;25.70;;;7.80;99.90;;;;;;4921762;28;20031;-79
2023/03/09 12:17:20;;;;;;;65.03;26.90;;;8.20;99.90;;;;;;4913453;28;20035;-78
2023/03/09 12:19:48;;;;;;;51.58;22.83;;;7.70;99.90;;;;;;4921018;28;20112;-78
2023/03/09 12:22:28;;;;;;;56.30;25.90;;;7.60;99.90;;;;;;4911632;28;20035;-78
2023/03/09 12:25:13;;;;;;;60.22;25.45;;;7.80;99.90;;;;;;4914182;28;20036;-78
2023/03/09 12:27:47;;;;;;;46.72;22.77;;;7.90;99.90;;;;;;4945390;28;20039;-78
2023/03/09 12:30:30;;;;;;;48.78;21.95;;;7.90;99.90;;;;;;4944825;28;20062;-80
2023/03/09 12:33:00;;;;;;;56.70;25.88;;;7.90;99.90;;;;;;4931793;28;20040;-78
2023/03/09 12:35:41;;;;;;;52.65;24.92;;;8.00;99.90;;;;;;4922199;28;20826;-77
2023/03/09 12:38:22;;;;;;;52.05;22.58;;;8.10;99.90;;;;;;4945129;28;20079;-78
2023/03/09 12:40:48;;;;;;;52.67;24.08;;;8.10;99.90;;;;;;4909227;29;20776;-78